sensor_id;sensor_type;location;lat;lon;timestamp;P1;durP1;ratioP1;P2;durP2;ratioP2
52776;SDS011;38656;54.260;20.822;2023-06-14T00:01:05;15.18;;;4.43;;
52776;SDS011;38656;54.260;20.822;2023-06-14T00:03:32;6.22;;;3.65;;
52776;SDS011;38656;54.260;20.822;2023-06-14T00:05:58;7.97;;;4.50;;
52776;SDS011;38656;54.260;20.822;2023-06-14T00:08:24;6.68;;;4.03;;
52776;SDS011;38656;54.260;20.822;2023-06-14T00:10:50;9.35;;;4.10;;
52776;SDS011;38656;54.260;20.822;2023-06-14T00:13:17;6.82;;;4.10;;
52776;SDS011;38656;54.260;20.822;2023-06-14T00:15:43;7.78;;;4.05;;
52776;SDS011;38656;54.260;20.822;2023-06-14T00:18:11;15.27;;;8.27;;
52776;SDS011;38656;54.260;20.822;2023-06-14T00:20:37;20.95;;;7.05;;
52776;SDS011;38656;54.260;20.822;2023-06-14T00:23:04;13.02;;;8.27;;
52776;SDS011;38656;54.260;20.822;2023-06-14T00:25:30;13.75;;;7.95;;
52776;SDS011;38656;54.260;20.822;2023-06-14T00:27:57;10.63;;;7.68;;
52776;SDS011;38656;54.260;20.822;2023-06-14T00:30:23;30.70;;;14.77;;
52776;SDS011;38656;54.260;20.822;2023-06-14T00:32:50;15.75;;;9.73;;
52776;SDS011;38656;54.260;20.822;2023-06-14T00:35:16;17.13;;;9.20;;
52776;SDS011;38656;54.260;20.822;2023-06-14T00:37:43;16.75;;;9.80;;
52776;SDS011;38656;54.260;20.822;2023-06-14T00:40:09;13.50;;;9.65;;
52776;SDS011;38656;54.260;20.822;2023-06-14T00:42:35;13.95;;;10.27;;
52776;SDS011;38656;54.260;20.822;2023-06-14T00:45:01;10.30;;;7.10;;
52776;SDS011;38656;54.260;20.822;2023-06-14T00:47:28;11.93;;;7.18;;
52776;SDS011;38656;54.260;20.822;2023-06-14T00:49:54;11.48;;;6.35;;
52776;SDS011;38656;54.260;20.822;2023-06-14T00:52:21;5.43;;;4.88;;
52776;SDS011;38656;54.260;20.822;2023-06-14T00:54:51;10.57;;;5.07;;
52776;SDS011;38656;54.260;20.822;2023-06-14T00:57:17;7.18;;;5.07;;
52776;SDS011;38656;54.260;20.822;2023-06-14T00:59:46;6.32;;;5.63;;
52776;SDS011;38656;54.260;20.822;2023-06-14T01:02:13;9.35;;;5.60;;
52776;SDS011;38656;54.260;20.822;2023-06-14T01:04:40;7.80;;;6.43;;
52776;SDS011;38656;54.260;20.822;2023-06-14T01:07:25;12.32;;;5.95;;
52776;SDS011;38656;54.260;20.822;2023-06-14T01:15:35;11.02;;;6.50;;
52776;SDS011;38656;54.260;20.822;2023-06-14T01:18:03;6.97;;;5.90;;
52776;SDS011;38656;54.260;20.822;2023-06-14T01:20:31;10.27;;;6.35;;
52776;SDS011;38656;54.260;20.822;2023-06-14T01:23:01;10.23;;;6.22;;
52776;SDS011;38656;54.260;20.822;2023-06-14T01:25:28;12.98;;;6.60;;
52776;SDS011;38656;54.260;20.822;2023-06-14T01:28:02;7.80;;;6.07;;
52776;SDS011;38656;54.260;20.822;2023-06-14T01:30:38;9.67;;;7.37;;
52776;SDS011;38656;54.260;20.822;2023-06-14T01:33:11;11.02;;;6.35;;
52776;SDS011;38656;54.260;20.822;2023-06-14T01:35:38;6.75;;;5.85;;
52776;SDS011;38656;54.260;20.822;2023-06-14T01:38:09;9.23;;;6.18;;
52776;SDS011;38656;54.260;20.822;2023-06-14T01:40:36;13.15;;;6.88;;
52776;SDS011;38656;54.260;20.822;2023-06-14T01:43:03;7.40;;;6.65;;
52776;SDS011;38656;54.260;20.822;2023-06-14T01:45:30;11.00;;;6.75;;
52776;SDS011;38656;54.260;20.822;2023-06-14T01:47:58;7.63;;;6.40;;
52776;SDS011;38656;54.260;20.822;2023-06-14T01:50:29;13.07;;;7.65;;
52776;SDS011;38656;54.260;20.822;2023-06-14T01:52:56;16.60;;;7.97;;
52776;SDS011;38656;54.260;20.822;2023-06-14T01:55:23;15.27;;;7.97;;
52776;SDS011;38656;54.260;20.822;2023-06-14T01:57:52;15.23;;;8.05;;
52776;SDS011;38656;54.260;20.822;2023-06-14T02:00:19;11.45;;;7.65;;
52776;SDS011;38656;54.260;20.822;2023-06-14T02:02:46;13.23;;;9.10;;
52776;SDS011;38656;54.260;20.822;2023-06-14T02:05:12;8.65;;;7.50;;
52776;SDS011;38656;54.260;20.822;2023-06-14T02:07:40;12.32;;;9.20;;
52776;SDS011;38656;54.260;20.822;2023-06-14T02:10:06;9.73;;;8.45;;
52776;SDS011;38656;54.260;20.822;2023-06-14T02:12:33;15.60;;;8.55;;
52776;SDS011;38656;54.260;20.822;2023-06-14T02:14:59;19.77;;;8.27;;
52776;SDS011;38656;54.260;20.822;2023-06-14T02:17:25;15.98;;;8.73;;
52776;SDS011;38656;54.260;20.822;2023-06-14T02:19:51;11.90;;;8.85;;
52776;SDS011;38656;54.260;20.822;2023-06-14T02:22:17;14.82;;;8.05;;
52776;SDS011;38656;54.260;20.822;2023-06-14T02:24:45;12.85;;;9.07;;
52776;SDS011;38656;54.260;20.822;2023-06-14T02:27:12;11.73;;;9.13;;
52776;SDS011;38656;54.260;20.822;2023-06-14T02:29:38;17.30;;;9.23;;
52776;SDS011;38656;54.260;20.822;2023-06-14T02:32:05;18.15;;;9.75;;
52776;SDS011;38656;54.260;20.822;2023-06-14T02:34:34;11.73;;;9.20;;
52776;SDS011;38656;54.260;20.822;2023-06-14T02:37:01;10.73;;;9.40;;
52776;SDS011;38656;54.260;20.822;2023-06-14T02:39:30;14.88;;;10.95;;
52776;SDS011;38656;54.260;20.822;2023-06-14T02:41:56;15.25;;;9.40;;
52776;SDS011;38656;54.260;20.822;2023-06-14T02:44:26;12.55;;;9.95;;
52776;SDS011;38656;54.260;20.822;2023-06-14T02:46:55;14.77;;;9.27;;
52776;SDS011;38656;54.260;20.822;2023-06-14T02:49:23;11.35;;;8.60;;
52776;SDS011;38656;54.260;20.822;2023-06-14T02:51:50;11.77;;;9.85;;
52776;SDS011;38656;54.260;20.822;2023-06-14T02:54:16;16.80;;;9.38;;
52776;SDS011;38656;54.260;20.822;2023-06-14T02:56:42;19.88;;;10.95;;
52776;SDS011;38656;54.260;20.822;2023-06-14T02:59:08;10.07;;;8.82;;
52776;SDS011;38656;54.260;20.822;2023-06-14T03:01:35;15.55;;;9.88;;
52776;SDS011;38656;54.260;20.822;2023-06-14T03:04:04;14.15;;;10.15;;
52776;SDS011;38656;54.260;20.822;2023-06-14T03:06:30;11.55;;;9.23;;
52776;SDS011;38656;54.260;20.822;2023-06-14T03:08:57;10.02;;;9.00;;
52776;SDS011;38656;54.260;20.822;2023-06-14T03:11:29;12.00;;;9.70;;
52776;SDS011;38656;54.260;20.822;2023-06-14T03:13:56;13.20;;;9.27;;
52776;SDS011;38656;54.260;20.822;2023-06-14T03:16:22;10.85;;;8.95;;
52776;SDS011;38656;54.260;20.822;2023-06-14T03:18:51;12.13;;;9.35;;
52776;SDS011;38656;54.260;20.822;2023-06-14T03:21:21;11.40;;;9.18;;
52776;SDS011;38656;54.260;20.822;2023-06-14T03:23:48;9.98;;;8.30;;
52776;SDS011;38656;54.260;20.822;2023-06-14T03:26:14;12.98;;;9.63;;
52776;SDS011;38656;54.260;20.822;2023-06-14T03:28:45;13.18;;;7.93;;
52776;SDS011;38656;54.260;20.822;2023-06-14T03:31:13;10.43;;;8.98;;
52776;SDS011;38656;54.260;20.822;2023-06-14T03:33:41;12.18;;;9.00;;
52776;SDS011;38656;54.260;20.822;2023-06-14T03:36:07;12.57;;;9.32;;
52776;SDS011;38656;54.260;20.822;2023-06-14T03:38:33;11.63;;;8.95;;
52776;SDS011;38656;54.260;20.822;2023-06-14T03:41:00;16.50;;;9.68;;
52776;SDS011;38656;54.260;20.822;2023-06-14T03:43:26;11.18;;;8.75;;
52776;SDS011;38656;54.260;20.822;2023-06-14T03:45:55;16.15;;;9.35;;
52776;SDS011;38656;54.260;20.822;2023-06-14T03:48:21;10.60;;;8.43;;
52776;SDS011;38656;54.260;20.822;2023-06-14T03:50:47;9.68;;;8.70;;
52776;SDS011;38656;54.260;20.822;2023-06-14T03:53:13;15.85;;;9.35;;
52776;SDS011;38656;54.260;20.822;2023-06-14T03:55:40;14.18;;;9.57;;
52776;SDS011;38656;54.260;20.822;2023-06-14T03:58:06;15.05;;;9.50;;
52776;SDS011;38656;54.260;20.822;2023-06-14T04:00:33;14.50;;;9.55;;
52776;SDS011;38656;54.260;20.822;2023-06-14T04:02:59;17.13;;;10.38;;
52776;SDS011;38656;54.260;20.822;2023-06-14T04:05:25;15.20;;;9.90;;
52776;SDS011;38656;54.260;20.822;2023-06-14T04:07:51;17.63;;;10.43;;
52776;SDS011;38656;54.260;20.822;2023-06-14T04:10:20;12.27;;;10.10;;
52776;SDS011;38656;54.260;20.822;2023-06-14T04:12:46;14.88;;;11.13;;
52776;SDS011;38656;54.260;20.822;2023-06-14T04:15:13;19.02;;;10.38;;
52776;SDS011;38656;54.260;20.822;2023-06-14T04:17:39;16.27;;;11.68;;
52776;SDS011;38656;54.260;20.822;2023-06-14T04:20:06;16.95;;;12.32;;
52776;SDS011;38656;54.260;20.822;2023-06-14T04:22:34;24.75;;;11.25;;
52776;SDS011;38656;54.260;20.822;2023-06-14T04:25:01;16.33;;;11.70;;
52776;SDS011;38656;54.260;20.822;2023-06-14T04:27:27;16.33;;;12.50;;
52776;SDS011;38656;54.260;20.822;2023-06-14T04:29:56;21.23;;;12.43;;
52776;SDS011;38656;54.260;20.822;2023-06-14T04:32:23;23.95;;;11.75;;
52776;SDS011;38656;54.260;20.822;2023-06-14T04:34:57;14.75;;;12.70;;
52776;SDS011;38656;54.260;20.822;2023-06-14T04:37:24;19.13;;;13.38;;
52776;SDS011;38656;54.260;20.822;2023-06-14T04:39:53;15.60;;;11.88;;
52776;SDS011;38656;54.260;20.822;2023-06-14T04:42:21;18.52;;;12.18;;
52776;SDS011;38656;54.260;20.822;2023-06-14T04:44:50;15.32;;;12.57;;
52776;SDS011;38656;54.260;20.822;2023-06-14T04:47:19;16.85;;;13.40;;
52776;SDS011;38656;54.260;20.822;2023-06-14T04:49:46;21.02;;;12.45;;
52776;SDS011;38656;54.260;20.822;2023-06-14T04:52:12;21.13;;;13.20;;
52776;SDS011;38656;54.260;20.822;2023-06-14T04:54:41;19.17;;;13.35;;
52776;SDS011;38656;54.260;20.822;2023-06-14T04:57:08;19.67;;;12.75;;
52776;SDS011;38656;54.260;20.822;2023-06-14T04:59:39;18.65;;;13.38;;
52776;SDS011;38656;54.260;20.822;2023-06-14T05:02:06;19.35;;;13.43;;
52776;SDS011;38656;54.260;20.822;2023-06-14T05:04:33;20.00;;;14.35;;
52776;SDS011;38656;54.260;20.822;2023-06-14T05:07:04;19.05;;;14.73;;
52776;SDS011;38656;54.260;20.822;2023-06-14T05:09:34;15.75;;;13.48;;
52776;SDS011;38656;54.260;20.822;2023-06-14T05:12:01;22.38;;;14.57;;
52776;SDS011;38656;54.260;20.822;2023-06-14T05:14:28;20.05;;;15.75;;
52776;SDS011;38656;54.260;20.822;2023-06-14T05:16:54;21.60;;;15.23;;
52776;SDS011;38656;54.260;20.822;2023-06-14T05:19:20;18.33;;;14.65;;
52776;SDS011;38656;54.260;20.822;2023-06-14T05:21:47;18.90;;;14.75;;
52776;SDS011;38656;54.260;20.822;2023-06-14T05:24:14;18.60;;;13.13;;
52776;SDS011;38656;54.260;20.822;2023-06-14T05:26:42;27.02;;;14.75;;
52776;SDS011;38656;54.260;20.822;2023-06-14T05:29:08;29.88;;;15.20;;
52776;SDS011;38656;54.260;20.822;2023-06-14T05:31:34;23.02;;;14.45;;
52776;SDS011;38656;54.260;20.822;2023-06-14T05:34:00;18.58;;;14.48;;
52776;SDS011;38656;54.260;20.822;2023-06-14T05:36:27;19.52;;;14.93;;
52776;SDS011;38656;54.260;20.822;2023-06-14T05:38:53;16.33;;;13.93;;
52776;SDS011;38656;54.260;20.822;2023-06-14T05:41:23;20.73;;;14.70;;
52776;SDS011;38656;54.260;20.822;2023-06-14T05:43:53;19.70;;;14.70;;
52776;SDS011;38656;54.260;20.822;2023-06-14T05:46:21;20.27;;;14.20;;
52776;SDS011;38656;54.260;20.822;2023-06-14T05:48:50;18.42;;;14.95;;
52776;SDS011;38656;54.260;20.822;2023-06-14T05:51:17;17.70;;;14.23;;
52776;SDS011;38656;54.260;20.822;2023-06-14T05:53:44;20.35;;;14.80;;
52776;SDS011;38656;54.260;20.822;2023-06-14T05:56:14;18.33;;;15.23;;
52776;SDS011;38656;54.260;20.822;2023-06-14T05:58:42;18.98;;;14.80;;
52776;SDS011;38656;54.260;20.822;2023-06-14T06:01:09;23.45;;;16.35;;
52776;SDS011;38656;54.260;20.822;2023-06-14T06:03:35;30.27;;;15.82;;
52776;SDS011;38656;54.260;20.822;2023-06-14T06:06:02;20.67;;;15.40;;
52776;SDS011;38656;54.260;20.822;2023-06-14T06:08:28;22.38;;;14.43;;
52776;SDS011;38656;54.260;20.822;2023-06-14T06:10:55;20.77;;;14.60;;
52776;SDS011;38656;54.260;20.822;2023-06-14T06:13:21;17.80;;;15.15;;
52776;SDS011;38656;54.260;20.822;2023-06-14T06:15:47;20.38;;;15.20;;
52776;SDS011;38656;54.260;20.822;2023-06-14T06:18:14;20.90;;;15.35;;
52776;SDS011;38656;54.260;20.822;2023-06-14T06:20:40;16.35;;;14.20;;
52776;SDS011;38656;54.260;20.822;2023-06-14T06:23:06;19.92;;;15.40;;
52776;SDS011;38656;54.260;20.822;2023-06-14T06:25:34;20.58;;;15.10;;
52776;SDS011;38656;54.260;20.822;2023-06-14T06:28:00;19.58;;;16.20;;
52776;SDS011;38656;54.260;20.822;2023-06-14T06:30:27;16.48;;;14.25;;
52776;SDS011;38656;54.260;20.822;2023-06-14T06:32:53;21.38;;;16.23;;
52776;SDS011;38656;54.260;20.822;2023-06-14T06:35:20;17.85;;;15.18;;
52776;SDS011;38656;54.260;20.822;2023-06-14T06:37:47;18.55;;;14.88;;
52776;SDS011;38656;54.260;20.822;2023-06-14T06:40:13;17.52;;;15.00;;
52776;SDS011;38656;54.260;20.822;2023-06-14T06:42:39;18.88;;;15.25;;
52776;SDS011;38656;54.260;20.822;2023-06-14T06:45:05;18.75;;;14.18;;
52776;SDS011;38656;54.260;20.822;2023-06-14T06:47:32;18.23;;;16.30;;
52776;SDS011;38656;54.260;20.822;2023-06-14T06:49:58;19.48;;;16.98;;
52776;SDS011;38656;54.260;20.822;2023-06-14T06:52:24;21.35;;;15.25;;
52776;SDS011;38656;54.260;20.822;2023-06-14T06:54:51;18.83;;;15.35;;
52776;SDS011;38656;54.260;20.822;2023-06-14T06:57:20;17.27;;;14.93;;
52776;SDS011;38656;54.260;20.822;2023-06-14T06:59:47;20.25;;;13.98;;
52776;SDS011;38656;54.260;20.822;2023-06-14T07:02:14;16.23;;;13.68;;
52776;SDS011;38656;54.260;20.822;2023-06-14T07:04:41;16.42;;;13.82;;
52776;SDS011;38656;54.260;20.822;2023-06-14T07:07:07;16.23;;;14.18;;
52776;SDS011;38656;54.260;20.822;2023-06-14T07:09:34;14.68;;;13.02;;
52776;SDS011;38656;54.260;20.822;2023-06-14T07:12:01;19.20;;;13.23;;
52776;SDS011;38656;54.260;20.822;2023-06-14T07:14:27;25.90;;;12.90;;
52776;SDS011;38656;54.260;20.822;2023-06-14T07:16:55;16.10;;;12.20;;
52776;SDS011;38656;54.260;20.822;2023-06-14T07:19:21;18.88;;;13.10;;
52776;SDS011;38656;54.260;20.822;2023-06-14T07:21:47;19.23;;;12.27;;
52776;SDS011;38656;54.260;20.822;2023-06-14T07:24:13;17.58;;;11.73;;
52776;SDS011;38656;54.260;20.822;2023-06-14T07:26:40;18.63;;;11.77;;
52776;SDS011;38656;54.260;20.822;2023-06-14T07:29:06;19.17;;;12.35;;
52776;SDS011;38656;54.260;20.822;2023-06-14T07:31:32;18.50;;;12.15;;
52776;SDS011;38656;54.260;20.822;2023-06-14T07:33:58;17.55;;;12.45;;
52776;SDS011;38656;54.260;20.822;2023-06-14T07:36:25;17.60;;;11.18;;
52776;SDS011;38656;54.260;20.822;2023-06-14T07:38:51;11.75;;;10.40;;
52776;SDS011;38656;54.260;20.822;2023-06-14T07:41:17;13.98;;;10.65;;
52776;SDS011;38656;54.260;20.822;2023-06-14T07:43:43;10.35;;;8.82;;
52776;SDS011;38656;54.260;20.822;2023-06-14T07:46:09;11.68;;;8.80;;
52776;SDS011;38656;54.260;20.822;2023-06-14T07:48:36;15.95;;;8.60;;
52776;SDS011;38656;54.260;20.822;2023-06-14T07:51:02;13.07;;;8.35;;
52776;SDS011;38656;54.260;20.822;2023-06-14T07:53:29;9.20;;;7.97;;
52776;SDS011;38656;54.260;20.822;2023-06-14T07:55:56;11.93;;;8.32;;
52776;SDS011;38656;54.260;20.822;2023-06-14T07:58:22;17.08;;;9.75;;
52776;SDS011;38656;54.260;20.822;2023-06-14T08:00:48;13.80;;;8.27;;
52776;SDS011;38656;54.260;20.822;2023-06-14T08:03:14;19.02;;;8.68;;
52776;SDS011;38656;54.260;20.822;2023-06-14T08:05:40;8.13;;;7.38;;
52776;SDS011;38656;54.260;20.822;2023-06-14T08:08:07;12.90;;;7.45;;
52776;SDS011;38656;54.260;20.822;2023-06-14T08:10:33;16.73;;;8.13;;
52776;SDS011;38656;54.260;20.822;2023-06-14T08:12:59;10.10;;;8.30;;
52776;SDS011;38656;54.260;20.822;2023-06-14T08:15:28;14.88;;;7.63;;
52776;SDS011;38656;54.260;20.822;2023-06-14T08:17:54;10.70;;;8.32;;
52776;SDS011;38656;54.260;20.822;2023-06-14T08:20:21;11.63;;;7.43;;
52776;SDS011;38656;54.260;20.822;2023-06-14T08:22:47;10.88;;;7.95;;
52776;SDS011;38656;54.260;20.822;2023-06-14T08:25:13;12.23;;;8.07;;
52776;SDS011;38656;54.260;20.822;2023-06-14T08:27:40;11.75;;;8.40;;
52776;SDS011;38656;54.260;20.822;2023-06-14T08:30:06;8.68;;;7.40;;
52776;SDS011;38656;54.260;20.822;2023-06-14T08:32:33;11.52;;;7.68;;
52776;SDS011;38656;54.260;20.822;2023-06-14T08:34:59;8.45;;;7.65;;
52776;SDS011;38656;54.260;20.822;2023-06-14T08:37:25;11.52;;;7.38;;
52776;SDS011;38656;54.260;20.822;2023-06-14T08:39:52;14.55;;;8.27;;
52776;SDS011;38656;54.260;20.822;2023-06-14T08:42:18;12.93;;;8.57;;
52776;SDS011;38656;54.260;20.822;2023-06-14T08:44:46;12.35;;;7.78;;
52776;SDS011;38656;54.260;20.822;2023-06-14T08:47:12;8.32;;;6.63;;
52776;SDS011;38656;54.260;20.822;2023-06-14T08:49:40;17.58;;;8.02;;
52776;SDS011;38656;54.260;20.822;2023-06-14T08:52:10;7.50;;;6.22;;
52776;SDS011;38656;54.260;20.822;2023-06-14T08:54:37;11.13;;;5.90;;
52776;SDS011;38656;54.260;20.822;2023-06-14T08:57:09;12.55;;;6.55;;
52776;SDS011;38656;54.260;20.822;2023-06-14T08:59:40;8.38;;;6.10;;
52776;SDS011;38656;54.260;20.822;2023-06-14T09:02:17;9.35;;;6.30;;
52776;SDS011;38656;54.260;20.822;2023-06-14T09:04:44;7.45;;;5.60;;
52776;SDS011;38656;54.260;20.822;2023-06-14T09:07:11;11.95;;;6.65;;
52776;SDS011;38656;54.260;20.822;2023-06-14T09:09:40;9.50;;;5.63;;
52776;SDS011;38656;54.260;20.822;2023-06-14T09:12:10;5.82;;;4.63;;
52776;SDS011;38656;54.260;20.822;2023-06-14T09:14:37;11.23;;;4.43;;
52776;SDS011;38656;54.260;20.822;2023-06-14T09:17:05;5.90;;;4.47;;
52776;SDS011;38656;54.260;20.822;2023-06-14T09:19:32;4.85;;;3.50;;
52776;SDS011;38656;54.260;20.822;2023-06-14T09:22:01;8.05;;;3.20;;
52776;SDS011;38656;54.260;20.822;2023-06-14T09:24:28;7.78;;;2.90;;
52776;SDS011;38656;54.260;20.822;2023-06-14T09:26:54;3.38;;;2.35;;
52776;SDS011;38656;54.260;20.822;2023-06-14T09:29:20;4.25;;;2.58;;
52776;SDS011;38656;54.260;20.822;2023-06-14T09:31:47;8.23;;;3.10;;
52776;SDS011;38656;54.260;20.822;2023-06-14T09:34:13;4.72;;;2.60;;
52776;SDS011;38656;54.260;20.822;2023-06-14T09:36:41;4.60;;;3.00;;
52776;SDS011;38656;54.260;20.822;2023-06-14T09:39:07;7.15;;;3.42;;
52776;SDS011;38656;54.260;20.822;2023-06-14T09:41:38;4.63;;;2.90;;
52776;SDS011;38656;54.260;20.822;2023-06-14T09:44:06;4.20;;;2.88;;
52776;SDS011;38656;54.260;20.822;2023-06-14T09:46:34;9.05;;;2.60;;
52776;SDS011;38656;54.260;20.822;2023-06-14T09:49:01;4.72;;;2.85;;
52776;SDS011;38656;54.260;20.822;2023-06-14T09:51:28;2.80;;;2.20;;
52776;SDS011;38656;54.260;20.822;2023-06-14T09:53:59;3.45;;;2.38;;
52776;SDS011;38656;54.260;20.822;2023-06-14T09:56:27;4.70;;;2.70;;
52776;SDS011;38656;54.260;20.822;2023-06-14T09:58:55;7.10;;;4.03;;
52776;SDS011;38656;54.260;20.822;2023-06-14T10:01:23;27.88;;;3.13;;
52776;SDS011;38656;54.260;20.822;2023-06-14T10:03:53;7.15;;;3.17;;
52776;SDS011;38656;54.260;20.822;2023-06-14T10:06:27;4.57;;;2.70;;
52776;SDS011;38656;54.260;20.822;2023-06-14T10:08:56;4.15;;;2.47;;
52776;SDS011;38656;54.260;20.822;2023-06-14T10:11:28;4.28;;;3.15;;
52776;SDS011;38656;54.260;20.822;2023-06-14T10:13:57;6.28;;;2.72;;
52776;SDS011;38656;54.260;20.822;2023-06-14T10:19:00;7.35;;;2.33;;
52776;SDS011;38656;54.260;20.822;2023-06-14T10:21:43;3.38;;;2.35;;
52776;SDS011;38656;54.260;20.822;2023-06-14T10:24:32;6.78;;;2.70;;
52776;SDS011;38656;54.260;20.822;2023-06-14T10:27:05;4.78;;;2.30;;
52776;SDS011;38656;54.260;20.822;2023-06-14T10:29:35;5.28;;;2.85;;
52776;SDS011;38656;54.260;20.822;2023-06-14T10:32:21;8.02;;;2.83;;
52776;SDS011;38656;54.260;20.822;2023-06-14T10:34:59;6.47;;;3.00;;
52776;SDS011;38656;54.260;20.822;2023-06-14T10:37:30;5.85;;;2.58;;
52776;SDS011;38656;54.260;20.822;2023-06-14T10:39:56;4.13;;;2.80;;
52776;SDS011;38656;54.260;20.822;2023-06-14T10:42:23;5.07;;;3.25;;
52776;SDS011;38656;54.260;20.822;2023-06-14T10:44:57;7.32;;;2.45;;
52776;SDS011;38656;54.260;20.822;2023-06-14T10:47:33;6.32;;;3.45;;
52776;SDS011;38656;54.260;20.822;2023-06-14T10:50:04;4.15;;;3.03;;
52776;SDS011;38656;54.260;20.822;2023-06-14T10:52:39;4.20;;;2.47;;
52776;SDS011;38656;54.260;20.822;2023-06-14T10:57:48;7.35;;;2.50;;
52776;SDS011;38656;54.260;20.822;2023-06-14T11:00:23;6.38;;;2.67;;
52776;SDS011;38656;54.260;20.822;2023-06-14T11:05:49;7.93;;;6.13;;
52776;SDS011;38656;54.260;20.822;2023-06-14T11:11:07;7.57;;;6.35;;
52776;SDS011;38656;54.260;20.822;2023-06-14T11:13:37;10.90;;;5.30;;
52776;SDS011;38656;54.260;20.822;2023-06-14T11:16:15;4.70;;;2.85;;
52776;SDS011;38656;54.260;20.822;2023-06-14T11:18:44;4.65;;;2.80;;
52776;SDS011;38656;54.260;20.822;2023-06-14T11:21:17;9.93;;;3.17;;
52776;SDS011;38656;54.260;20.822;2023-06-14T11:23:52;4.57;;;2.60;;
52776;SDS011;38656;54.260;20.822;2023-06-14T11:26:27;16.58;;;7.75;;
52776;SDS011;38656;54.260;20.822;2023-06-14T11:28:57;9.60;;;4.43;;
52776;SDS011;38656;54.260;20.822;2023-06-14T11:31:25;9.07;;;4.18;;
52776;SDS011;38656;54.260;20.822;2023-06-14T11:33:55;17.33;;;6.53;;
52776;SDS011;38656;54.260;20.822;2023-06-14T11:36:26;17.85;;;5.20;;
52776;SDS011;38656;54.260;20.822;2023-06-14T11:39:00;13.38;;;9.98;;
52776;SDS011;38656;54.260;20.822;2023-06-14T11:41:36;3.85;;;3.30;;
52776;SDS011;38656;54.260;20.822;2023-06-14T11:44:04;4.57;;;2.30;;
52776;SDS011;38656;54.260;20.822;2023-06-14T11:46:31;5.30;;;2.60;;
52776;SDS011;38656;54.260;20.822;2023-06-14T11:48:57;6.38;;;2.45;;
52776;SDS011;38656;54.260;20.822;2023-06-14T11:51:24;3.05;;;2.25;;
52776;SDS011;38656;54.260;20.822;2023-06-14T11:53:50;10.57;;;2.53;;
52776;SDS011;38656;54.260;20.822;2023-06-14T11:56:17;3.40;;;2.45;;
52776;SDS011;38656;54.260;20.822;2023-06-14T11:58:43;4.70;;;2.55;;
52776;SDS011;38656;54.260;20.822;2023-06-14T12:01:14;8.10;;;2.40;;
52776;SDS011;38656;54.260;20.822;2023-06-14T12:03:47;10.70;;;2.53;;
52776;SDS011;38656;54.260;20.822;2023-06-14T12:06:14;10.23;;;2.80;;
52776;SDS011;38656;54.260;20.822;2023-06-14T12:08:40;6.88;;;2.83;;
52776;SDS011;38656;54.260;20.822;2023-06-14T12:11:22;3.70;;;2.60;;
52776;SDS011;38656;54.260;20.822;2023-06-14T12:13:58;7.90;;;2.60;;
52776;SDS011;38656;54.260;20.822;2023-06-14T12:16:29;4.22;;;2.38;;
52776;SDS011;38656;54.260;20.822;2023-06-14T12:19:00;2.40;;;2.13;;
52776;SDS011;38656;54.260;20.822;2023-06-14T12:21:33;4.78;;;2.80;;
52776;SDS011;38656;54.260;20.822;2023-06-14T12:24:03;7.60;;;2.78;;
52776;SDS011;38656;54.260;20.822;2023-06-14T12:26:31;3.47;;;1.95;;
52776;SDS011;38656;54.260;20.822;2023-06-14T12:28:58;6.32;;;2.47;;
52776;SDS011;38656;54.260;20.822;2023-06-14T12:31:24;7.57;;;2.70;;
52776;SDS011;38656;54.260;20.822;2023-06-14T12:33:51;8.10;;;2.72;;
52776;SDS011;38656;54.260;20.822;2023-06-14T12:36:18;5.70;;;2.20;;
52776;SDS011;38656;54.260;20.822;2023-06-14T12:38:45;6.40;;;2.20;;
52776;SDS011;38656;54.260;20.822;2023-06-14T12:41:11;5.35;;;2.55;;
52776;SDS011;38656;54.260;20.822;2023-06-14T12:43:39;3.88;;;2.25;;
52776;SDS011;38656;54.260;20.822;2023-06-14T12:46:05;7.88;;;2.53;;
52776;SDS011;38656;54.260;20.822;2023-06-14T12:48:31;5.93;;;2.30;;
52776;SDS011;38656;54.260;20.822;2023-06-14T12:50:59;2.78;;;2.58;;
52776;SDS011;38656;54.260;20.822;2023-06-14T12:53:25;3.05;;;2.40;;
52776;SDS011;38656;54.260;20.822;2023-06-14T12:55:51;7.43;;;2.40;;
52776;SDS011;38656;54.260;20.822;2023-06-14T12:58:17;8.98;;;2.33;;
52776;SDS011;38656;54.260;20.822;2023-06-14T13:00:45;4.80;;;2.25;;
52776;SDS011;38656;54.260;20.822;2023-06-14T13:03:11;4.70;;;2.50;;
52776;SDS011;38656;54.260;20.822;2023-06-14T13:05:37;8.50;;;2.50;;
52776;SDS011;38656;54.260;20.822;2023-06-14T13:08:06;4.82;;;2.25;;
52776;SDS011;38656;54.260;20.822;2023-06-14T13:10:33;6.95;;;2.55;;
52776;SDS011;38656;54.260;20.822;2023-06-14T13:13:00;7.05;;;2.65;;
52776;SDS011;38656;54.260;20.822;2023-06-14T13:15:26;7.35;;;2.90;;
52776;SDS011;38656;54.260;20.822;2023-06-14T13:17:52;8.68;;;3.70;;
52776;SDS011;38656;54.260;20.822;2023-06-14T13:20:19;8.40;;;3.42;;
52776;SDS011;38656;54.260;20.822;2023-06-14T13:22:45;8.48;;;3.10;;
52776;SDS011;38656;54.260;20.822;2023-06-14T13:25:11;12.32;;;3.85;;
52776;SDS011;38656;54.260;20.822;2023-06-14T13:27:38;4.05;;;3.53;;
52776;SDS011;38656;54.260;20.822;2023-06-14T13:30:04;4.15;;;2.92;;
52776;SDS011;38656;54.260;20.822;2023-06-14T13:32:31;5.20;;;2.72;;
52776;SDS011;38656;54.260;20.822;2023-06-14T13:34:57;6.50;;;2.88;;
52776;SDS011;38656;54.260;20.822;2023-06-14T13:37:23;6.85;;;2.90;;
52776;SDS011;38656;54.260;20.822;2023-06-14T13:39:49;4.40;;;3.20;;
52776;SDS011;38656;54.260;20.822;2023-06-14T13:42:15;6.45;;;3.03;;
52776;SDS011;38656;54.260;20.822;2023-06-14T13:44:42;6.20;;;3.20;;
52776;SDS011;38656;54.260;20.822;2023-06-14T13:47:08;8.82;;;3.47;;
52776;SDS011;38656;54.260;20.822;2023-06-14T13:49:34;3.75;;;3.08;;
52776;SDS011;38656;54.260;20.822;2023-06-14T13:52:00;3.17;;;2.88;;
52776;SDS011;38656;54.260;20.822;2023-06-14T13:54:27;5.25;;;3.08;;
52776;SDS011;38656;54.260;20.822;2023-06-14T13:56:54;3.28;;;2.63;;
52776;SDS011;38656;54.260;20.822;2023-06-14T13:59:20;8.00;;;3.35;;
52776;SDS011;38656;54.260;20.822;2023-06-14T14:01:50;4.55;;;2.55;;
52776;SDS011;38656;54.260;20.822;2023-06-14T14:04:16;3.85;;;2.28;;
52776;SDS011;38656;54.260;20.822;2023-06-14T14:06:42;3.85;;;2.30;;
52776;SDS011;38656;54.260;20.822;2023-06-14T14:09:08;2.92;;;2.67;;
52776;SDS011;38656;54.260;20.822;2023-06-14T14:11:35;3.55;;;2.92;;
52776;SDS011;38656;54.260;20.822;2023-06-14T14:14:01;3.10;;;2.80;;
52776;SDS011;38656;54.260;20.822;2023-06-14T14:16:27;3.40;;;3.10;;
52776;SDS011;38656;54.260;20.822;2023-06-14T14:18:55;5.65;;;2.67;;
52776;SDS011;38656;54.260;20.822;2023-06-14T14:21:21;12.43;;;3.40;;
52776;SDS011;38656;54.260;20.822;2023-06-14T14:23:47;3.22;;;2.45;;
52776;SDS011;38656;54.260;20.822;2023-06-14T14:26:14;5.88;;;3.47;;
52776;SDS011;38656;54.260;20.822;2023-06-14T14:28:47;4.22;;;3.22;;
52776;SDS011;38656;54.260;20.822;2023-06-14T14:31:13;5.18;;;3.17;;
52776;SDS011;38656;54.260;20.822;2023-06-14T14:33:51;4.10;;;2.47;;
52776;SDS011;38656;54.260;20.822;2023-06-14T14:36:17;4.78;;;2.70;;
52776;SDS011;38656;54.260;20.822;2023-06-14T14:38:44;6.55;;;2.90;;
52776;SDS011;38656;54.260;20.822;2023-06-14T14:41:12;3.53;;;2.88;;
52776;SDS011;38656;54.260;20.822;2023-06-14T14:43:38;10.25;;;3.40;;